sensor_id;sensor_type;location;lat;lon;timestamp;pressure;altitude;pressure_sealevel;temperature;humidity
72370;BME280;60343;-32.030;115.880;2023-09-30T00:00:51;102041.31;;;21.66;53.68
72370;BME280;60343;-32.030;115.880;2023-09-30T00:03:26;102042.63;;;21.57;52.69
72370;BME280;60343;-32.030;115.880;2023-09-30T00:06:01;102040.34;;;21.41;54.02
72370;BME280;60343;-32.030;115.880;2023-09-30T00:08:37;102049.41;;;21.22;53.83
72370;BME280;60343;-32.030;115.880;2023-09-30T00:11:16;102045.41;;;20.98;54.17
72370;BME280;60343;-32.030;115.880;2023-09-30T00:13:57;102045.59;;;21.10;54.41
72370;BME280;60343;-32.030;115.880;2023-09-30T00:16:32;102058.81;;;20.60;56.70
72370;BME280;60343;-32.030;115.880;2023-09-30T00:19:07;102051.19;;;21.54;54.53
72370;BME280;60343;-32.030;115.880;2023-09-30T00:21:42;102058.59;;;21.98;54.63
72370;BME280;60343;-32.030;115.880;2023-09-30T00:24:18;102050.78;;;22.08;53.11
72370;BME280;60343;-32.030;115.880;2023-09-30T00:26:53;102049.41;;;22.93;51.48
72370;BME280;60343;-32.030;115.880;2023-09-30T00:29:35;102059.75;;;23.52;50.10
72370;BME280;60343;-32.030;115.880;2023-09-30T00:32:10;102054.66;;;23.56;49.32
72370;BME280;60343;-32.030;115.880;2023-09-30T00:34:46;102060.19;;;23.49;49.88
72370;BME280;60343;-32.030;115.880;2023-09-30T00:37:22;102061.47;;;22.79;50.90
72370;BME280;60343;-32.030;115.880;2023-09-30T00:39:57;102062.69;;;22.20;51.65
72370;BME280;60343;-32.030;115.880;2023-09-30T00:42:33;102051.88;;;22.95;51.42
72370;BME280;60343;-32.030;115.880;2023-09-30T00:45:14;102062.91;;;23.49;49.10
72370;BME280;60343;-32.030;115.880;2023-09-30T00:47:49;102067.66;;;23.18;50.93
72370;BME280;60343;-32.030;115.880;2023-09-30T00:50:26;102059.50;;;23.54;50.21
72370;BME280;60343;-32.030;115.880;2023-09-30T00:53:02;102066.78;;;23.60;49.35
72370;BME280;60343;-32.030;115.880;2023-09-30T00:55:38;102055.03;;;23.60;50.51
72370;BME280;60343;-32.030;115.880;2023-09-30T00:58:13;102057.47;;;23.68;48.65
72370;BME280;60343;-32.030;115.880;2023-09-30T01:00:56;102063.28;;;23.89;49.84
72370;BME280;60343;-32.030;115.880;2023-09-30T01:03:33;102070.16;;;23.62;49.65
72370;BME280;60343;-32.030;115.880;2023-09-30T01:06:08;102064.06;;;23.78;49.22
72370;BME280;60343;-32.030;115.880;2023-09-30T01:08:43;102062.75;;;23.81;49.10
72370;BME280;60343;-32.030;115.880;2023-09-30T01:11:20;102064.03;;;23.24;51.20
72370;BME280;60343;-32.030;115.880;2023-09-30T01:13:55;102066.66;;;22.56;53.48
72370;BME280;60343;-32.030;115.880;2023-09-30T01:16:46;102070.91;;;23.26;52.85
72370;BME280;60343;-32.030;115.880;2023-09-30T01:19:23;102080.16;;;23.25;51.58
72370;BME280;60343;-32.030;115.880;2023-09-30T01:22:04;102079.50;;;22.49;53.63
72370;BME280;60343;-32.030;115.880;2023-09-30T01:24:43;102081.09;;;21.87;55.27
72370;BME280;60343;-32.030;115.880;2023-09-30T01:27:18;102088.09;;;22.84;52.97
72370;BME280;60343;-32.030;115.880;2023-09-30T01:29:53;102087.09;;;23.52;50.32
72370;BME280;60343;-32.030;115.880;2023-09-30T01:32:28;102086.88;;;24.50;49.22
72370;BME280;60343;-32.030;115.880;2023-09-30T01:35:04;102081.63;;;24.78;46.75
72370;BME280;60343;-32.030;115.880;2023-09-30T01:37:47;102075.66;;;24.82;45.55
72370;BME280;60343;-32.030;115.880;2023-09-30T01:40:22;102068.44;;;25.34;44.15
72370;BME280;60343;-32.030;115.880;2023-09-30T01:42:58;102082.50;;;25.49;45.62
72370;BME280;60343;-32.030;115.880;2023-09-30T01:45:33;102082.38;;;25.32;45.01
72370;BME280;60343;-32.030;115.880;2023-09-30T01:48:09;102076.06;;;24.97;45.83
72370;BME280;60343;-32.030;115.880;2023-09-30T01:50:44;102078.09;;;24.48;47.55
72370;BME280;60343;-32.030;115.880;2023-09-30T01:53:25;102090.91;;;24.00;47.36
72370;BME280;60343;-32.030;115.880;2023-09-30T01:56:01;102086.47;;;24.76;45.03
72370;BME280;60343;-32.030;115.880;2023-09-30T01:58:36;102084.88;;;24.99;44.84
72370;BME280;60343;-32.030;115.880;2023-09-30T02:01:12;102085.13;;;25.32;43.61
72370;BME280;60343;-32.030;115.880;2023-09-30T02:03:47;102084.03;;;25.80;45.16
72370;BME280;60343;-32.030;115.880;2023-09-30T02:06:22;102091.88;;;25.88;43.96
72370;BME280;60343;-32.030;115.880;2023-09-30T02:09:03;102080.13;;;25.29;46.23
72370;BME280;60343;-32.030;115.880;2023-09-30T02:11:40;102084.50;;;25.53;45.91
72370;BME280;60343;-32.030;115.880;2023-09-30T02:14:15;102065.16;;;25.83;44.27
72370;BME280;60343;-32.030;115.880;2023-09-30T02:16:50;102070.16;;;26.26;45.20
72370;BME280;60343;-32.030;115.880;2023-09-30T02:19:25;102066.13;;;26.05;43.58
72370;BME280;60343;-32.030;115.880;2023-09-30T02:22:01;102067.25;;;26.33;44.17
72370;BME280;60343;-32.030;115.880;2023-09-30T02:24:42;102067.38;;;26.71;42.15
72370;BME280;60343;-32.030;115.880;2023-09-30T02:27:18;102069.31;;;26.26;44.53
72370;BME280;60343;-32.030;115.880;2023-09-30T02:29:53;102076.31;;;25.18;46.88
72370;BME280;60343;-32.030;115.880;2023-09-30T02:32:28;102074.91;;;24.63;47.07
72370;BME280;60343;-32.030;115.880;2023-09-30T02:35:05;102074.16;;;25.20;44.97
72370;BME280;60343;-32.030;115.880;2023-09-30T02:37:43;102068.63;;;25.90;43.98
72370;BME280;60343;-32.030;115.880;2023-09-30T02:40:24;102063.72;;;25.81;44.94
72370;BME280;60343;-32.030;115.880;2023-09-30T02:42:59;102062.72;;;25.00;47.10
72370;BME280;60343;-32.030;115.880;2023-09-30T02:45:35;102064.31;;;24.25;47.63
72370;BME280;60343;-32.030;115.880;2023-09-30T02:48:11;102050.53;;;24.31;48.39
72370;BME280;60343;-32.030;115.880;2023-09-30T02:50:46;102061.03;;;24.16;49.11
72370;BME280;60343;-32.030;115.880;2023-09-30T02:53:22;102054.53;;;24.59;49.79
72370;BME280;60343;-32.030;115.880;2023-09-30T02:56:03;102055.59;;;24.58;49.23
72370;BME280;60343;-32.030;115.880;2023-09-30T02:58:39;102048.00;;;24.71;47.75
72370;BME280;60343;-32.030;115.880;2023-09-30T03:01:16;102046.41;;;25.29;46.58
72370;BME280;60343;-32.030;115.880;2023-09-30T03:03:51;102031.69;;;25.70;46.15
72370;BME280;60343;-32.030;115.880;2023-09-30T03:06:26;102031.53;;;24.90;46.84
72370;BME280;60343;-32.030;115.880;2023-09-30T03:09:01;102033.91;;;24.45;48.11
72370;BME280;60343;-32.030;115.880;2023-09-30T03:11:43;102039.53;;;24.20;47.53
72370;BME280;60343;-32.030;115.880;2023-09-30T03:14:18;102035.63;;;23.98;49.23
72370;BME280;60343;-32.030;115.880;2023-09-30T03:16:53;102045.28;;;24.30;47.91
72370;BME280;60343;-32.030;115.880;2023-09-30T03:19:29;102037.03;;;24.48;48.17
72370;BME280;60343;-32.030;115.880;2023-09-30T03:22:05;102036.09;;;24.77;47.77
72370;BME280;60343;-32.030;115.880;2023-09-30T03:24:40;102036.34;;;24.64;48.07
72370;BME280;60343;-32.030;115.880;2023-09-30T03:27:21;102042.19;;;23.78;50.18
72370;BME280;60343;-32.030;115.880;2023-09-30T03:29:57;102039.31;;;23.73;50.55
72370;BME280;60343;-32.030;115.880;2023-09-30T03:32:33;102047.84;;;23.95;50.50
72370;BME280;60343;-32.030;115.880;2023-09-30T03:35:10;102035.25;;;24.54;49.30
72370;BME280;60343;-32.030;115.880;2023-09-30T03:37:46;102029.25;;;24.45;48.75
72370;BME280;60343;-32.030;115.880;2023-09-30T03:40:21;102034.59;;;24.10;50.30
72370;BME280;60343;-32.030;115.880;2023-09-30T03:43:07;102033.22;;;24.49;49.87
72370;BME280;60343;-32.030;115.880;2023-09-30T03:45:42;102027.09;;;25.12;47.94
72370;BME280;60343;-32.030;115.880;2023-09-30T03:48:18;102025.25;;;25.41;45.83
72370;BME280;60343;-32.030;115.880;2023-09-30T03:50:54;102019.41;;;25.60;46.00
72370;BME280;60343;-32.030;115.880;2023-09-30T03:53:30;102011.31;;;25.94;44.95
72370;BME280;60343;-32.030;115.880;2023-09-30T03:56:05;102018.22;;;25.68;45.80
72370;BME280;60343;-32.030;115.880;2023-09-30T03:58:46;102022.06;;;25.44;45.26
72370;BME280;60343;-32.030;115.880;2023-09-30T04:01:22;102015.00;;;25.48;44.66
72370;BME280;60343;-32.030;115.880;2023-09-30T04:03:57;102020.72;;;24.65;45.70
72370;BME280;60343;-32.030;115.880;2023-09-30T04:06:32;102034.09;;;24.02;48.15
72370;BME280;60343;-32.030;115.880;2023-09-30T04:09:07;102015.66;;;23.42;50.09
72370;BME280;60343;-32.030;115.880;2023-09-30T04:11:44;102023.41;;;23.27;50.89
72370;BME280;60343;-32.030;115.880;2023-09-30T04:14:25;102024.88;;;23.66;50.14
72370;BME280;60343;-32.030;115.880;2023-09-30T04:17:00;102009.09;;;23.98;49.38
72370;BME280;60343;-32.030;115.880;2023-09-30T04:19:35;102014.28;;;23.88;48.95
72370;BME280;60343;-32.030;115.880;2023-09-30T04:22:10;102007.16;;;24.17;47.35
72370;BME280;60343;-32.030;115.880;2023-09-30T04:24:47;101998.34;;;24.56;46.37
72370;BME280;60343;-32.030;115.880;2023-09-30T04:27:23;102005.13;;;24.65;47.10
72370;BME280;60343;-32.030;115.880;2023-09-30T04:30:04;101988.00;;;24.58;45.56
72370;BME280;60343;-32.030;115.880;2023-09-30T04:32:40;101979.09;;;25.09;46.27
72370;BME280;60343;-32.030;115.880;2023-09-30T04:35:15;101990.44;;;24.90;44.87
72370;BME280;60343;-32.030;115.880;2023-09-30T04:37:50;101984.81;;;24.96;44.59
72370;BME280;60343;-32.030;115.880;2023-09-30T04:40:26;101977.19;;;24.98;45.75
72370;BME280;60343;-32.030;115.880;2023-09-30T04:43:01;101989.75;;;24.53;46.04
72370;BME280;60343;-32.030;115.880;2023-09-30T04:45:42;101983.56;;;24.16;45.98
72370;BME280;60343;-32.030;115.880;2023-09-30T04:48:20;101979.91;;;23.62;48.36
72370;BME280;60343;-32.030;115.880;2023-09-30T04:50:56;101985.69;;;23.54;48.86
72370;BME280;60343;-32.030;115.880;2023-09-30T04:53:32;101974.34;;;24.17;48.67
72370;BME280;60343;-32.030;115.880;2023-09-30T04:56:07;101961.69;;;24.16;47.45
72370;BME280;60343;-32.030;115.880;2023-09-30T04:58:42;101955.13;;;24.58;45.97
72370;BME280;60343;-32.030;115.880;2023-09-30T05:01:24;101953.41;;;25.39;45.08
72370;BME280;60343;-32.030;115.880;2023-09-30T05:03:59;101949.31;;;25.65;42.94
72370;BME280;60343;-32.030;115.880;2023-09-30T05:06:34;101948.00;;;25.04;44.84
72370;BME280;60343;-32.030;115.880;2023-09-30T05:09:10;101952.34;;;25.28;45.25
72370;BME280;60343;-32.030;115.880;2023-09-30T05:11:45;101944.19;;;24.58;46.08
72370;BME280;60343;-32.030;115.880;2023-09-30T05:14:20;101940.72;;;24.10;46.69
72370;BME280;60343;-32.030;115.880;2023-09-30T05:17:02;101938.91;;;24.45;46.78
72370;BME280;60343;-32.030;115.880;2023-09-30T05:19:39;101940.84;;;24.56;46.67
72370;BME280;60343;-32.030;115.880;2023-09-30T05:22:16;101943.69;;;24.38;45.43
72370;BME280;60343;-32.030;115.880;2023-09-30T05:24:52;101936.06;;;24.40;46.33
72370;BME280;60343;-32.030;115.880;2023-09-30T05:27:28;101925.13;;;24.98;44.96
72370;BME280;60343;-32.030;115.880;2023-09-30T05:30:03;101930.81;;;24.50;44.04
72370;BME280;60343;-32.030;115.880;2023-09-30T05:32:45;101925.13;;;24.63;45.07
72370;BME280;60343;-32.030;115.880;2023-09-30T05:35:20;101922.19;;;24.12;45.96
72370;BME280;60343;-32.030;115.880;2023-09-30T05:37:57;101925.00;;;24.70;45.91
72370;BME280;60343;-32.030;115.880;2023-09-30T05:40:34;101928.81;;;24.69;43.87
72370;BME280;60343;-32.030;115.880;2023-09-30T05:43:09;101925.59;;;24.37;44.46
72370;BME280;60343;-32.030;115.880;2023-09-30T05:45:47;101923.78;;;24.31;44.77
72370;BME280;60343;-32.030;115.880;2023-09-30T05:48:29;101919.34;;;25.23;44.70
72370;BME280;60343;-32.030;115.880;2023-09-30T05:51:04;101916.75;;;25.05;42.45
72370;BME280;60343;-32.030;115.880;2023-09-30T05:53:42;101909.50;;;25.79;43.54
72370;BME280;60343;-32.030;115.880;2023-09-30T05:56:18;101919.81;;;26.50;41.00
72370;BME280;60343;-32.030;115.880;2023-09-30T05:58:53;101911.91;;;26.37;40.71
72370;BME280;60343;-32.030;115.880;2023-09-30T06:01:28;101909.78;;;26.11;41.87
72370;BME280;60343;-32.030;115.880;2023-09-30T06:04:09;101916.16;;;25.83;41.56
72370;BME280;60343;-32.030;115.880;2023-09-30T06:06:45;101911.88;;;25.58;42.07
72370;BME280;60343;-32.030;115.880;2023-09-30T06:09:21;101902.94;;;25.96;42.70
72370;BME280;60343;-32.030;115.880;2023-09-30T06:11:58;101901.91;;;26.14;43.43
72370;BME280;60343;-32.030;115.880;2023-09-30T06:14:35;101898.88;;;25.54;42.35
72370;BME280;60343;-32.030;115.880;2023-09-30T06:17:10;101904.50;;;24.61;45.17
72370;BME280;60343;-32.030;115.880;2023-09-30T06:19:51;101899.91;;;23.97;47.10
72370;BME280;60343;-32.030;115.880;2023-09-30T06:22:35;101900.03;;;24.02;46.04
72370;BME280;60343;-32.030;115.880;2023-09-30T06:25:10;101899.16;;;24.43;44.70
72370;BME280;60343;-32.030;115.880;2023-09-30T06:27:46;101908.91;;;24.50;44.20
72370;BME280;60343;-32.030;115.880;2023-09-30T06:30:24;101902.31;;;24.16;44.15
72370;BME280;60343;-32.030;115.880;2023-09-30T06:33:02;101909.28;;;23.59;46.70
72370;BME280;60343;-32.030;115.880;2023-09-30T06:35:45;101894.78;;;23.88;46.61
72370;BME280;60343;-32.030;115.880;2023-09-30T06:38:24;101897.75;;;23.87;44.74
72370;BME280;60343;-32.030;115.880;2023-09-30T06:40:59;101912.44;;;23.74;45.00
72370;BME280;60343;-32.030;115.880;2023-09-30T06:43:35;101910.81;;;23.55;47.06
72370;BME280;60343;-32.030;115.880;2023-09-30T06:46:10;101906.91;;;23.33;46.73
72370;BME280;60343;-32.030;115.880;2023-09-30T06:48:46;101902.19;;;22.85;47.46
72370;BME280;60343;-32.030;115.880;2023-09-30T06:51:27;101904.34;;;22.83;47.59
72370;BME280;60343;-32.030;115.880;2023-09-30T06:54:04;101899.38;;;23.76;46.82
72370;BME280;60343;-32.030;115.880;2023-09-30T06:56:40;101898.69;;;25.04;44.50
72370;BME280;60343;-32.030;115.880;2023-09-30T06:59:15;101900.97;;;25.92;42.81
72370;BME280;60343;-32.030;115.880;2023-09-30T07:01:52;101911.44;;;26.78;40.29
72370;BME280;60343;-32.030;115.880;2023-09-30T07:04:28;101911.28;;;25.85;42.63
72370;BME280;60343;-32.030;115.880;2023-09-30T07:07:09;101913.72;;;26.48;38.15
72370;BME280;60343;-32.030;115.880;2023-09-30T07:09:45;101920.69;;;26.89;38.94
72370;BME280;60343;-32.030;115.880;2023-09-30T07:12:20;101922.63;;;25.77;41.41
72370;BME280;60343;-32.030;115.880;2023-09-30T07:14:56;101917.50;;;24.65;43.61
72370;BME280;60343;-32.030;115.880;2023-09-30T07:17:32;101917.34;;;24.25;43.69
72370;BME280;60343;-32.030;115.880;2023-09-30T07:20:09;101918.56;;;24.76;43.26
72370;BME280;60343;-32.030;115.880;2023-09-30T07:22:51;101915.13;;;25.04;43.12
72370;BME280;60343;-32.030;115.880;2023-09-30T07:25:27;101908.41;;;25.51;43.02
72370;BME280;60343;-32.030;115.880;2023-09-30T07:28:03;101918.59;;;24.88;43.31
72370;BME280;60343;-32.030;115.880;2023-09-30T07:30:40;101916.53;;;24.71;41.04
72370;BME280;60343;-32.030;115.880;2023-09-30T07:33:16;101918.94;;;24.79;42.55
72370;BME280;60343;-32.030;115.880;2023-09-30T07:35:51;101913.13;;;24.11;43.37
72370;BME280;60343;-32.030;115.880;2023-09-30T07:38:32;101914.91;;;24.06;46.39
72370;BME280;60343;-32.030;115.880;2023-09-30T07:41:07;101914.75;;;23.59;46.10
72370;BME280;60343;-32.030;115.880;2023-09-30T07:43:45;101904.41;;;23.13;46.98
72370;BME280;60343;-32.030;115.880;2023-09-30T07:46:20;101902.50;;;22.95;47.90
72370;BME280;60343;-32.030;115.880;2023-09-30T07:48:56;101907.38;;;22.93;48.60
72370;BME280;60343;-32.030;115.880;2023-09-30T07:51:32;101906.97;;;23.26;47.80
72370;BME280;60343;-32.030;115.880;2023-09-30T07:54:13;101912.22;;;23.28;47.37
72370;BME280;60343;-32.030;115.880;2023-09-30T07:56:49;101906.44;;;22.99;48.35
72370;BME280;60343;-32.030;115.880;2023-09-30T07:59:24;101898.56;;;23.28;46.90
72370;BME280;60343;-32.030;115.880;2023-09-30T08:02:04;101903.47;;;23.37;47.34
72370;BME280;60343;-32.030;115.880;2023-09-30T08:04:42;101903.91;;;23.34;47.28
72370;BME280;60343;-32.030;115.880;2023-09-30T08:07:17;101898.72;;;22.78;47.10
72370;BME280;60343;-32.030;115.880;2023-09-30T08:09:58;101904.28;;;22.40;47.95
72370;BME280;60343;-32.030;115.880;2023-09-30T08:12:34;101900.84;;;22.02;49.26
72370;BME280;60343;-32.030;115.880;2023-09-30T08:15:10;101904.47;;;21.89;50.33
72370;BME280;60343;-32.030;115.880;2023-09-30T08:17:46;101901.25;;;21.67;51.17
72370;BME280;60343;-32.030;115.880;2023-09-30T08:20:21;101900.47;;;21.60;52.27
72370;BME280;60343;-32.030;115.880;2023-09-30T08:22:56;101905.88;;;21.67;52.91
72370;BME280;60343;-32.030;115.880;2023-09-30T08:25:37;101905.09;;;21.53;53.67
72370;BME280;60343;-32.030;115.880;2023-09-30T08:28:13;101908.06;;;21.52;54.64
72370;BME280;60343;-32.030;115.880;2023-09-30T08:30:48;101898.75;;;21.66;52.44
72370;BME280;60343;-32.030;115.880;2023-09-30T08:33:26;101906.91;;;21.72;53.03
72370;BME280;60343;-32.030;115.880;2023-09-30T08:36:04;101896.34;;;21.82;52.63
72370;BME280;60343;-32.030;115.880;2023-09-30T08:38:41;101904.28;;;21.84;52.83
72370;BME280;60343;-32.030;115.880;2023-09-30T08:41:31;101897.41;;;21.81;53.68
72370;BME280;60343;-32.030;115.880;2023-09-30T08:44:06;101899.66;;;21.53;53.72
72370;BME280;60343;-32.030;115.880;2023-09-30T08:46:42;101900.38;;;21.35;54.47
72370;BME280;60343;-32.030;115.880;2023-09-30T08:49:19;101899.81;;;21.20;55.04
72370;BME280;60343;-32.030;115.880;2023-09-30T08:51:56;101900.88;;;21.06;55.17
72370;BME280;60343;-32.030;115.880;2023-09-30T08:54:33;101899.06;;;20.80;55.90
72370;BME280;60343;-32.030;115.880;2023-09-30T08:57:14;101912.03;;;20.85;56.60
72370;BME280;60343;-32.030;115.880;2023-09-30T08:59:51;101901.19;;;20.65;56.88
72370;BME280;60343;-32.030;115.880;2023-09-30T09:02:27;101906.44;;;20.67;56.90
72370;BME280;60343;-32.030;115.880;2023-09-30T09:05:03;101905.16;;;20.63;57.13
72370;BME280;60343;-32.030;115.880;2023-09-30T09:07:39;101907.06;;;20.62;56.76
72370;BME280;60343;-32.030;115.880;2023-09-30T09:10:15;101911.03;;;20.60;56.86
72370;BME280;60343;-32.030;115.880;2023-09-30T09:13:01;101911.91;;;20.47;57.53
72370;BME280;60343;-32.030;115.880;2023-09-30T09:15:36;101921.28;;;20.58;57.15
72370;BME280;60343;-32.030;115.880;2023-09-30T09:18:11;101921.72;;;20.54;56.97
72370;BME280;60343;-32.030;115.880;2023-09-30T09:20:47;101918.97;;;20.28;57.26
72370;BME280;60343;-32.030;115.880;2023-09-30T09:23:23;101919.22;;;20.40;57.35
72370;BME280;60343;-32.030;115.880;2023-09-30T09:25:58;101919.22;;;20.33;58.00
72370;BME280;60343;-32.030;115.880;2023-09-30T09:28:44;101921.34;;;20.31;58.13
72370;BME280;60343;-32.030;115.880;2023-09-30T09:31:23;101922.31;;;20.17;58.45
72370;BME280;60343;-32.030;115.880;2023-09-30T09:33:59;101928.41;;;20.26;58.32
72370;BME280;60343;-32.030;115.880;2023-09-30T09:36:41;101936.13;;;20.22;58.43
72370;BME280;60343;-32.030;115.880;2023-09-30T09:39:16;101938.41;;;20.12;58.49
72370;BME280;60343;-32.030;115.880;2023-09-30T09:42:04;101936.09;;;19.89;59.27
72370;BME280;60343;-32.030;115.880;2023-09-30T09:44:46;101942.34;;;19.83;60.20
72370;BME280;60343;-32.030;115.880;2023-09-30T09:47:22;101953.84;;;19.79;60.51
72370;BME280;60343;-32.030;115.880;2023-09-30T09:50:00;101954.91;;;19.91;59.72
72370;BME280;60343;-32.030;115.880;2023-09-30T09:52:39;101959.25;;;19.79;60.17
72370;BME280;60343;-32.030;115.880;2023-09-30T09:55:16;101949.25;;;19.79;60.40
72370;BME280;60343;-32.030;115.880;2023-09-30T09:57:52;101955.53;;;19.86;59.86
72370;BME280;60343;-32.030;115.880;2023-09-30T10:00:33;101958.19;;;19.73;59.95
72370;BME280;60343;-32.030;115.880;2023-09-30T10:03:12;101960.78;;;19.40;60.92
72370;BME280;60343;-32.030;115.880;2023-09-30T10:05:48;101958.69;;;19.36;60.38
72370;BME280;60343;-32.030;115.880;2023-09-30T10:08:31;101956.84;;;19.08;61.41
72370;BME280;60343;-32.030;115.880;2023-09-30T10:11:07;101957.81;;;18.94;61.44
72370;BME280;60343;-32.030;115.880;2023-09-30T10:13:53;101953.09;;;18.75;62.45
72370;BME280;60343;-32.030;115.880;2023-09-30T10:16:56;101949.91;;;18.71;63.09
72370;BME280;60343;-32.030;115.880;2023-09-30T10:19:31;101962.22;;;18.67;63.63
72370;BME280;60343;-32.030;115.880;2023-09-30T10:22:26;101963.84;;;18.40;64.14
72370;BME280;60343;-32.030;115.880;2023-09-30T10:25:01;101959.97;;;18.28;64.24
72370;BME280;60343;-32.030;115.880;2023-09-30T10:27:37;101957.59;;;18.19;64.72
72370;BME280;60343;-32.030;115.880;2023-09-30T10:30:15;101965.25;;;18.36;64.61
72370;BME280;60343;-32.030;115.880;2023-09-30T10:33:16;101954.06;;;18.18;64.85
72370;BME280;60343;-32.030;115.880;2023-09-30T10:35:53;101961.16;;;18.19;65.25
72370;BME280;60343;-32.030;115.880;2023-09-30T10:38:40;101957.47;;;18.27;65.19
72370;BME280;60343;-32.030;115.880;2023-09-30T10:41:49;101962.50;;;18.30;65.17
72370;BME280;60343;-32.030;115.880;2023-09-30T10:44:37;101963.28;;;18.24;65.18
72370;BME280;60343;-32.030;115.880;2023-09-30T10:47:35;101967.41;;;18.20;65.45
72370;BME280;60343;-32.030;115.880;2023-09-30T10:53:20;101974.44;;;18.35;65.11
72370;BME280;60343;-32.030;115.880;2023-09-30T10:55:56;101978.47;;;18.46;64.99
72370;BME280;60343;-32.030;115.880;2023-09-30T10:58:42;101979.38;;;18.53;64.99
72370;BME280;60343;-32.030;115.880;2023-09-30T11:01:19;101983.72;;;18.48;65.66
72370;BME280;60343;-32.030;115.880;2023-09-30T11:04:01;101992.56;;;18.56;65.64
72370;BME280;60343;-32.030;115.880;2023-09-30T11:06:41;101991.75;;;18.56;65.29
72370;BME280;60343;-32.030;115.880;2023-09-30T11:09:23;101989.72;;;18.43;65.64
72370;BME280;60343;-32.030;115.880;2023-09-30T11:11:58;101987.53;;;18.32;66.09
72370;BME280;60343;-32.030;115.880;2023-09-30T11:14:34;101992.56;;;18.14;67.15
72370;BME280;60343;-32.030;115.880;2023-09-30T11:17:09;101992.19;;;17.95;67.11
72370;BME280;60343;-32.030;115.880;2023-09-30T11:19:48;101988.69;;;17.80;67.84
72370;BME280;60343;-32.030;115.880;2023-09-30T11:22:23;101991.75;;;17.77;67.99
72370;BME280;60343;-32.030;115.880;2023-09-30T11:25:05;101991.66;;;17.71;67.76
72370;BME280;60343;-32.030;115.880;2023-09-30T11:27:40;101993.47;;;17.49;68.40
72370;BME280;60343;-32.030;115.880;2023-09-30T11:30:15;101996.47;;;17.39;69.04
72370;BME280;60343;-32.030;115.880;2023-09-30T11:33:00;102001.22;;;17.23;69.49
72370;BME280;60343;-32.030;115.880;2023-09-30T11:35:37;102001.31;;;17.29;69.15
72370;BME280;60343;-32.030;115.880;2023-09-30T11:38:18;101997.97;;;17.12;69.33
72370;BME280;60343;-32.030;115.880;2023-09-30T11:41:08;102000.84;;;16.96;69.71
72370;BME280;60343;-32.030;115.880;2023-09-30T11:44:03;102006.22;;;16.82;69.84
72370;BME280;60343;-32.030;115.880;2023-09-30T11:46:52;102003.66;;;16.65;70.31
72370;BME280;60343;-32.030;115.880;2023-09-30T11:49:30;102005.56;;;16.57;70.71
72370;BME280;60343;-32.030;115.880;2023-09-30T11:52:07;102009.38;;;16.48;70.96
72370;BME280;60343;-32.030;115.880;2023-09-30T11:54:43;102007.41;;;16.42;71.12
72370;BME280;60343;-32.030;115.880;2023-09-30T11:57:25;102012.19;;;16.31;71.23
72370;BME280;60343;-32.030;115.880;2023-09-30T12:00:00;102012.63;;;16.20;71.79
72370;BME280;60343;-32.030;115.880;2023-09-30T12:02:41;102014.38;;;16.13;71.94
72370;BME280;60343;-32.030;115.880;2023-09-30T12:05:16;102018.16;;;16.04;72.38
72370;BME280;60343;-32.030;115.880;2023-09-30T12:07:51;102010.38;;;16.01;72.25
72370;BME280;60343;-32.030;115.880;2023-09-30T12:10:26;102016.03;;;15.92;72.45
72370;BME280;60343;-32.030;115.880;2023-09-30T12:13:08;102015.22;;;15.83;72.58
72370;BME280;60343;-32.030;115.880;2023-09-30T12:15:44;102011.53;;;15.76;72.78
72370;BME280;60343;-32.030;115.880;2023-09-30T12:18:20;102027.13;;;15.66;73.01
72370;BME280;60343;-32.030;115.880;2023-09-30T12:20:56;102020.22;;;15.63;73.52
72370;BME280;60343;-32.030;115.880;2023-09-30T12:23:39;102022.47;;;15.52;73.91
72370;BME280;60343;-32.030;115.880;2023-09-30T12:26:16;102026.84;;;15.44;73.89
72370;BME280;60343;-32.030;115.880;2023-09-30T12:28:58;102025.88;;;15.37;74.11
72370;BME280;60343;-32.030;115.880;2023-09-30T12:31:33;102019.47;;;15.30;74.36
72370;BME280;60343;-32.030;115.880;2023-09-30T12:34:08;102018.66;;;15.22;74.92
72370;BME280;60343;-32.030;115.880;2023-09-30T12:36:45;102021.38;;;15.14;74.78
72370;BME280;60343;-32.030;115.880;2023-09-30T12:39:21;102008.91;;;15.04;74.80
72370;BME280;60343;-32.030;115.880;2023-09-30T12:42:00;102017.53;;;15.00;75.42
72370;BME280;60343;-32.030;115.880;2023-09-30T12:44:43;102011.16;;;14.93;75.42
72370;BME280;60343;-32.030;115.880;2023-09-30T12:47:18;102016.22;;;14.88;75.40
72370;BME280;60343;-32.030;115.880;2023-09-30T12:49:54;102014.53;;;14.87;75.76
72370;BME280;60343;-32.030;115.880;2023-09-30T12:52:29;102009.81;;;14.81;75.98
72370;BME280;60343;-32.030;115.880;2023-09-30T12:55:07;102010.47;;;14.75;76.19
72370;BME280;60343;-32.030;115.880;2023-09-30T12:57:42;102008.31;;;14.70;75.85
72370;BME280;60343;-32.030;115.880;2023-09-30T13:00:23;102015.22;;;14.65;76.13
72370;BME280;60343;-32.030;115.880;2023-09-30T13:02:59;102008.81;;;14.57;76.71
72370;BME280;60343;-32.030;115.880;2023-09-30T13:05:35;102005.28;;;14.49;77.21
72370;BME280;60343;-32.030;115.880;2023-09-30T13:08:10;102000.22;;;14.46;77.01
72370;BME280;60343;-32.030;115.880;2023-09-30T13:10:46;102000.06;;;14.39;77.47
72370;BME280;60343;-32.030;115.880;2023-09-30T13:13:21;101993.44;;;14.34;76.94
72370;BME280;60343;-32.030;115.880;2023-09-30T13:16:05;101999.34;;;14.29;77.39